sensor_id;sensor_type;location;lat;lon;timestamp;temperature;humidity
15115;DHT22;7658;51.456;7.622;2022-08-21T00:00:51;16.10;99.90
15115;DHT22;7658;51.456;7.622;2022-08-21T00:03:18;16.10;99.90
15115;DHT22;7658;51.456;7.622;2022-08-21T00:05:47;16.00;99.90
15115;DHT22;7658;51.456;7.622;2022-08-21T00:08:15;16.10;99.90
15115;DHT22;7658;51.456;7.622;2022-08-21T00:10:42;16.10;99.90
15115;DHT22;7658;51.456;7.622;2022-08-21T00:13:09;16.00;99.90
15115;DHT22;7658;51.456;7.622;2022-08-21T00:15:36;16.10;99.90
15115;DHT22;7658;51.456;7.622;2022-08-21T00:18:04;16.20;99.90
15115;DHT22;7658;51.456;7.622;2022-08-21T00:20:31;16.20;99.90
15115;DHT22;7658;51.456;7.622;2022-08-21T00:22:57;16.20;99.90
15115;DHT22;7658;51.456;7.622;2022-08-21T00:25:22;16.20;99.90
15115;DHT22;7658;51.456;7.622;2022-08-21T00:27:48;16.20;99.90
15115;DHT22;7658;51.456;7.622;2022-08-21T00:30:17;16.10;99.90
15115;DHT22;7658;51.456;7.622;2022-08-21T00:32:43;16.20;99.90
15115;DHT22;7658;51.456;7.622;2022-08-21T00:35:12;16.20;99.90
15115;DHT22;7658;51.456;7.622;2022-08-21T00:37:39;16.10;99.90
15115;DHT22;7658;51.456;7.622;2022-08-21T00:40:07;16.00;99.90
15115;DHT22;7658;51.456;7.622;2022-08-21T00:42:34;16.00;99.90
15115;DHT22;7658;51.456;7.622;2022-08-21T00:45:00;15.90;99.90
15115;DHT22;7658;51.456;7.622;2022-08-21T00:47:27;15.90;99.90
15115;DHT22;7658;51.456;7.622;2022-08-21T00:49:53;15.90;99.90
15115;DHT22;7658;51.456;7.622;2022-08-21T00:52:22;15.80;99.90
15115;DHT22;7658;51.456;7.622;2022-08-21T00:54:51;15.90;99.90
15115;DHT22;7658;51.456;7.622;2022-08-21T00:57:21;15.80;99.90
15115;DHT22;7658;51.456;7.622;2022-08-21T00:59:51;15.80;99.90
15115;DHT22;7658;51.456;7.622;2022-08-21T01:02:19;15.70;99.90
15115;DHT22;7658;51.456;7.622;2022-08-21T01:04:46;15.80;99.90
15115;DHT22;7658;51.456;7.622;2022-08-21T01:07:12;15.70;99.90
15115;DHT22;7658;51.456;7.622;2022-08-21T01:09:41;15.70;99.90
15115;DHT22;7658;51.456;7.622;2022-08-21T01:12:08;15.70;99.90
15115;DHT22;7658;51.456;7.622;2022-08-21T01:14:34;15.70;99.90
15115;DHT22;7658;51.456;7.622;2022-08-21T01:17:02;15.70;99.90
15115;DHT22;7658;51.456;7.622;2022-08-21T01:19:29;15.70;99.90
15115;DHT22;7658;51.456;7.622;2022-08-21T01:21:55;15.70;99.90
15115;DHT22;7658;51.456;7.622;2022-08-21T01:24:22;15.60;99.90
15115;DHT22;7658;51.456;7.622;2022-08-21T01:26:48;15.60;99.90
15115;DHT22;7658;51.456;7.622;2022-08-21T01:31:46;15.60;99.90
15115;DHT22;7658;51.456;7.622;2022-08-21T01:34:12;15.60;99.90
15115;DHT22;7658;51.456;7.622;2022-08-21T01:36:38;15.60;99.90
15115;DHT22;7658;51.456;7.622;2022-08-21T01:39:04;15.70;99.90
15115;DHT22;7658;51.456;7.622;2022-08-21T01:41:30;15.70;99.90
15115;DHT22;7658;51.456;7.622;2022-08-21T01:43:56;15.70;99.90
15115;DHT22;7658;51.456;7.622;2022-08-21T01:46:22;15.70;99.90
15115;DHT22;7658;51.456;7.622;2022-08-21T01:48:48;15.70;99.90
15115;DHT22;7658;51.456;7.622;2022-08-21T01:51:13;15.60;99.90
15115;DHT22;7658;51.456;7.622;2022-08-21T01:53:39;15.60;99.90
15115;DHT22;7658;51.456;7.622;2022-08-21T01:56:09;15.60;99.90
15115;DHT22;7658;51.456;7.622;2022-08-21T01:58:35;15.50;99.90
15115;DHT22;7658;51.456;7.622;2022-08-21T02:01:02;15.50;99.90
15115;DHT22;7658;51.456;7.622;2022-08-21T02:03:29;15.50;99.90
15115;DHT22;7658;51.456;7.622;2022-08-21T02:05:55;15.60;99.90
15115;DHT22;7658;51.456;7.622;2022-08-21T02:08:21;15.60;99.90
15115;DHT22;7658;51.456;7.622;2022-08-21T02:10:51;15.70;99.90
15115;DHT22;7658;51.456;7.622;2022-08-21T02:13:18;15.70;99.90
15115;DHT22;7658;51.456;7.622;2022-08-21T02:15:44;15.70;99.90
15115;DHT22;7658;51.456;7.622;2022-08-21T02:18:10;15.70;99.90
15115;DHT22;7658;51.456;7.622;2022-08-21T02:20:42;15.70;99.90
15115;DHT22;7658;51.456;7.622;2022-08-21T02:23:10;15.70;99.90
15115;DHT22;7658;51.456;7.622;2022-08-21T02:25:36;15.70;99.90
15115;DHT22;7658;51.456;7.622;2022-08-21T02:28:04;15.60;99.90
15115;DHT22;7658;51.456;7.622;2022-08-21T02:30:34;15.60;99.90
15115;DHT22;7658;51.456;7.622;2022-08-21T02:33:00;15.60;99.90
15115;DHT22;7658;51.456;7.622;2022-08-21T02:35:26;15.60;99.90
15115;DHT22;7658;51.456;7.622;2022-08-21T02:37:55;15.70;99.90
15115;DHT22;7658;51.456;7.622;2022-08-21T02:40:26;15.60;99.90
15115;DHT22;7658;51.456;7.622;2022-08-21T02:42:52;15.70;99.90
15115;DHT22;7658;51.456;7.622;2022-08-21T02:45:19;15.70;99.90
15115;DHT22;7658;51.456;7.622;2022-08-21T02:47:50;15.70;99.90
15115;DHT22;7658;51.456;7.622;2022-08-21T02:50:26;15.70;99.90
15115;DHT22;7658;51.456;7.622;2022-08-21T02:52:52;15.60;99.90
15115;DHT22;7658;51.456;7.622;2022-08-21T02:55:19;15.60;99.90
15115;DHT22;7658;51.456;7.622;2022-08-21T02:57:46;15.60;99.90
15115;DHT22;7658;51.456;7.622;2022-08-21T03:00:12;15.50;99.90
15115;DHT22;7658;51.456;7.622;2022-08-21T03:02:39;15.50;99.90
15115;DHT22;7658;51.456;7.622;2022-08-21T03:05:07;15.50;99.90
15115;DHT22;7658;51.456;7.622;2022-08-21T03:07:33;15.40;99.90
15115;DHT22;7658;51.456;7.622;2022-08-21T03:10:00;15.30;99.90
15115;DHT22;7658;51.456;7.622;2022-08-21T03:12:26;15.30;99.90
15115;DHT22;7658;51.456;7.622;2022-08-21T03:14:52;15.20;99.90
15115;DHT22;7658;51.456;7.622;2022-08-21T03:17:17;15.10;99.90
15115;DHT22;7658;51.456;7.622;2022-08-21T03:19:43;15.10;99.90
15115;DHT22;7658;51.456;7.622;2022-08-21T03:22:09;15.10;99.90
15115;DHT22;7658;51.456;7.622;2022-08-21T03:24:34;15.00;99.90
15115;DHT22;7658;51.456;7.622;2022-08-21T03:27:00;14.90;99.90
15115;DHT22;7658;51.456;7.622;2022-08-21T03:29:26;14.80;99.90
15115;DHT22;7658;51.456;7.622;2022-08-21T03:31:52;14.80;99.90
15115;DHT22;7658;51.456;7.622;2022-08-21T03:34:20;14.70;99.90
15115;DHT22;7658;51.456;7.622;2022-08-21T03:36:47;14.80;99.90
15115;DHT22;7658;51.456;7.622;2022-08-21T03:39:15;14.80;99.90
15115;DHT22;7658;51.456;7.622;2022-08-21T03:41:40;14.80;99.90
15115;DHT22;7658;51.456;7.622;2022-08-21T03:44:07;14.80;99.90
15115;DHT22;7658;51.456;7.622;2022-08-21T03:46:32;14.80;99.90
15115;DHT22;7658;51.456;7.622;2022-08-21T03:48:58;14.80;99.90
15115;DHT22;7658;51.456;7.622;2022-08-21T03:51:24;14.70;99.90
15115;DHT22;7658;51.456;7.622;2022-08-21T03:53:50;14.60;99.90
15115;DHT22;7658;51.456;7.622;2022-08-21T03:56:15;14.60;99.90
15115;DHT22;7658;51.456;7.622;2022-08-21T03:58:42;14.60;99.90
15115;DHT22;7658;51.456;7.622;2022-08-21T04:01:08;14.60;99.90
15115;DHT22;7658;51.456;7.622;2022-08-21T04:03:36;14.60;99.90
15115;DHT22;7658;51.456;7.622;2022-08-21T04:06:02;14.60;99.90
15115;DHT22;7658;51.456;7.622;2022-08-21T04:08:28;14.60;99.90
15115;DHT22;7658;51.456;7.622;2022-08-21T04:10:55;14.60;99.90
15115;DHT22;7658;51.456;7.622;2022-08-21T04:13:22;14.60;99.90
15115;DHT22;7658;51.456;7.622;2022-08-21T04:15:48;14.50;99.90
15115;DHT22;7658;51.456;7.622;2022-08-21T04:18:14;14.50;99.90
15115;DHT22;7658;51.456;7.622;2022-08-21T04:20:42;14.50;99.90
15115;DHT22;7658;51.456;7.622;2022-08-21T04:23:08;14.50;99.90
15115;DHT22;7658;51.456;7.622;2022-08-21T04:25:34;14.50;99.90
15115;DHT22;7658;51.456;7.622;2022-08-21T04:28:00;14.50;99.90
15115;DHT22;7658;51.456;7.622;2022-08-21T04:30:27;14.50;99.90
15115;DHT22;7658;51.456;7.622;2022-08-21T04:32:53;14.50;99.90
15115;DHT22;7658;51.456;7.622;2022-08-21T04:35:21;14.50;99.90
15115;DHT22;7658;51.456;7.622;2022-08-21T04:37:47;14.50;99.90
15115;DHT22;7658;51.456;7.622;2022-08-21T04:40:15;14.50;99.90
15115;DHT22;7658;51.456;7.622;2022-08-21T04:42:44;14.40;99.90
15115;DHT22;7658;51.456;7.622;2022-08-21T04:45:43;14.50;99.90
15115;DHT22;7658;51.456;7.622;2022-08-21T04:48:09;14.50;99.90
15115;DHT22;7658;51.456;7.622;2022-08-21T04:53:21;14.40;99.90
15115;DHT22;7658;51.456;7.622;2022-08-21T04:55:48;14.40;99.90
15115;DHT22;7658;51.456;7.622;2022-08-21T04:58:17;14.40;99.90
15115;DHT22;7658;51.456;7.622;2022-08-21T05:00:43;14.30;99.90
15115;DHT22;7658;51.456;7.622;2022-08-21T05:03:11;14.30;99.90
15115;DHT22;7658;51.456;7.622;2022-08-21T05:05:38;14.30;99.90
15115;DHT22;7658;51.456;7.622;2022-08-21T05:08:06;14.30;99.90
15115;DHT22;7658;51.456;7.622;2022-08-21T05:10:33;14.30;99.90
15115;DHT22;7658;51.456;7.622;2022-08-21T05:12:59;14.30;99.90
15115;DHT22;7658;51.456;7.622;2022-08-21T05:15:26;14.30;99.90
15115;DHT22;7658;51.456;7.622;2022-08-21T05:17:52;14.30;99.90
15115;DHT22;7658;51.456;7.622;2022-08-21T05:20:18;14.40;99.90
15115;DHT22;7658;51.456;7.622;2022-08-21T05:22:45;14.40;99.90
15115;DHT22;7658;51.456;7.622;2022-08-21T05:25:11;14.40;99.90
15115;DHT22;7658;51.456;7.622;2022-08-21T05:27:38;14.40;99.90
15115;DHT22;7658;51.456;7.622;2022-08-21T05:30:07;14.40;99.90
15115;DHT22;7658;51.456;7.622;2022-08-21T05:32:34;14.50;99.90
15115;DHT22;7658;51.456;7.622;2022-08-21T05:35:01;14.50;99.90
15115;DHT22;7658;51.456;7.622;2022-08-21T05:37:26;14.60;99.90
15115;DHT22;7658;51.456;7.622;2022-08-21T05:39:52;14.60;99.90
15115;DHT22;7658;51.456;7.622;2022-08-21T05:42:18;14.70;99.90
15115;DHT22;7658;51.456;7.622;2022-08-21T05:44:44;14.70;99.90
15115;DHT22;7658;51.456;7.622;2022-08-21T05:47:10;14.80;99.90
15115;DHT22;7658;51.456;7.622;2022-08-21T05:49:37;14.90;99.90
15115;DHT22;7658;51.456;7.622;2022-08-21T05:52:03;14.90;99.90
15115;DHT22;7658;51.456;7.622;2022-08-21T05:54:29;15.00;99.90
15115;DHT22;7658;51.456;7.622;2022-08-21T05:56:56;15.00;99.90
15115;DHT22;7658;51.456;7.622;2022-08-21T05:59:22;15.10;99.90
15115;DHT22;7658;51.456;7.622;2022-08-21T06:01:48;15.10;99.90
15115;DHT22;7658;51.456;7.622;2022-08-21T06:04:13;15.20;99.90
15115;DHT22;7658;51.456;7.622;2022-08-21T06:06:40;15.30;99.90
15115;DHT22;7658;51.456;7.622;2022-08-21T06:09:06;15.30;99.90
15115;DHT22;7658;51.456;7.622;2022-08-21T06:11:33;15.30;99.90
15115;DHT22;7658;51.456;7.622;2022-08-21T06:13:59;15.40;99.90
15115;DHT22;7658;51.456;7.622;2022-08-21T06:16:26;15.50;99.90
15115;DHT22;7658;51.456;7.622;2022-08-21T06:18:52;15.50;99.90
15115;DHT22;7658;51.456;7.622;2022-08-21T06:21:18;15.60;99.90
15115;DHT22;7658;51.456;7.622;2022-08-21T06:23:44;15.70;99.90
15115;DHT22;7658;51.456;7.622;2022-08-21T06:26:12;15.70;99.90
15115;DHT22;7658;51.456;7.622;2022-08-21T06:28:38;15.80;99.90
15115;DHT22;7658;51.456;7.622;2022-08-21T06:31:16;15.80;99.90
15115;DHT22;7658;51.456;7.622;2022-08-21T06:33:42;15.90;99.90
15115;DHT22;7658;51.456;7.622;2022-08-21T06:36:08;16.00;99.90
15115;DHT22;7658;51.456;7.622;2022-08-21T06:38:35;16.10;99.90
15115;DHT22;7658;51.456;7.622;2022-08-21T06:41:01;16.10;99.90
15115;DHT22;7658;51.456;7.622;2022-08-21T06:43:28;16.20;99.90
15115;DHT22;7658;51.456;7.622;2022-08-21T06:45:53;16.30;99.90
15115;DHT22;7658;51.456;7.622;2022-08-21T06:48:20;16.40;99.90
15115;DHT22;7658;51.456;7.622;2022-08-21T06:50:46;16.50;99.90
15115;DHT22;7658;51.456;7.622;2022-08-21T06:53:15;16.70;99.90
15115;DHT22;7658;51.456;7.622;2022-08-21T06:55:42;16.80;99.90
15115;DHT22;7658;51.456;7.622;2022-08-21T06:58:09;16.90;99.90
15115;DHT22;7658;51.456;7.622;2022-08-21T07:00:38;16.90;99.90
15115;DHT22;7658;51.456;7.622;2022-08-21T07:03:04;17.00;99.90
15115;DHT22;7658;51.456;7.622;2022-08-21T07:05:30;17.10;99.90
15115;DHT22;7658;51.456;7.622;2022-08-21T07:07:57;17.20;99.90
15115;DHT22;7658;51.456;7.622;2022-08-21T07:10:24;17.40;99.90
15115;DHT22;7658;51.456;7.622;2022-08-21T07:12:50;17.50;99.90
15115;DHT22;7658;51.456;7.622;2022-08-21T07:15:17;17.70;99.90
15115;DHT22;7658;51.456;7.622;2022-08-21T07:17:43;17.90;99.90
15115;DHT22;7658;51.456;7.622;2022-08-21T07:20:09;18.00;99.90
15115;DHT22;7658;51.456;7.622;2022-08-21T07:22:36;18.10;99.90
15115;DHT22;7658;51.456;7.622;2022-08-21T07:25:03;18.10;99.90
15115;DHT22;7658;51.456;7.622;2022-08-21T07:27:29;18.10;99.90
15115;DHT22;7658;51.456;7.622;2022-08-21T07:29:56;18.20;99.90
15115;DHT22;7658;51.456;7.622;2022-08-21T07:32:21;18.30;99.90
15115;DHT22;7658;51.456;7.622;2022-08-21T07:34:47;18.40;99.90
15115;DHT22;7658;51.456;7.622;2022-08-21T07:37:13;18.50;99.90
15115;DHT22;7658;51.456;7.622;2022-08-21T07:39:39;18.60;99.90
15115;DHT22;7658;51.456;7.622;2022-08-21T07:42:05;18.70;99.90
15115;DHT22;7658;51.456;7.622;2022-08-21T07:44:30;18.70;99.90
15115;DHT22;7658;51.456;7.622;2022-08-21T07:46:56;18.80;99.90
15115;DHT22;7658;51.456;7.622;2022-08-21T07:49:22;18.90;99.90
15115;DHT22;7658;51.456;7.622;2022-08-21T07:51:48;19.00;99.90
15115;DHT22;7658;51.456;7.622;2022-08-21T07:54:14;19.10;99.90
15115;DHT22;7658;51.456;7.622;2022-08-21T07:56:40;19.30;99.90
15115;DHT22;7658;51.456;7.622;2022-08-21T07:59:06;19.30;99.90
15115;DHT22;7658;51.456;7.622;2022-08-21T08:01:31;19.40;99.90
15115;DHT22;7658;51.456;7.622;2022-08-21T08:03:57;19.40;99.90
15115;DHT22;7658;51.456;7.622;2022-08-21T08:06:23;19.50;99.90
15115;DHT22;7658;51.456;7.622;2022-08-21T08:08:49;19.50;99.90
15115;DHT22;7658;51.456;7.622;2022-08-21T08:11:16;19.60;99.90
15115;DHT22;7658;51.456;7.622;2022-08-21T08:13:47;19.60;99.90
15115;DHT22;7658;51.456;7.622;2022-08-21T08:16:13;19.60;99.90
15115;DHT22;7658;51.456;7.622;2022-08-21T08:18:39;19.70;99.90
15115;DHT22;7658;51.456;7.622;2022-08-21T08:21:07;19.80;99.90
15115;DHT22;7658;51.456;7.622;2022-08-21T08:23:33;19.90;99.90
15115;DHT22;7658;51.456;7.622;2022-08-21T08:25:59;20.00;99.90
15115;DHT22;7658;51.456;7.622;2022-08-21T08:28:25;20.00;99.90
15115;DHT22;7658;51.456;7.622;2022-08-21T08:30:52;20.10;99.90
15115;DHT22;7658;51.456;7.622;2022-08-21T08:33:18;20.20;99.90
15115;DHT22;7658;51.456;7.622;2022-08-21T08:35:46;20.30;99.90
15115;DHT22;7658;51.456;7.622;2022-08-21T08:38:14;20.40;99.90
15115;DHT22;7658;51.456;7.622;2022-08-21T08:43:27;20.70;99.90
15115;DHT22;7658;51.456;7.622;2022-08-21T08:45:54;20.90;99.90
15115;DHT22;7658;51.456;7.622;2022-08-21T08:51:15;21.30;99.90
15115;DHT22;7658;51.456;7.622;2022-08-21T08:53:57;21.40;99.90
15115;DHT22;7658;51.456;7.622;2022-08-21T08:56:33;21.40;99.90
15115;DHT22;7658;51.456;7.622;2022-08-21T08:59:15;21.50;99.90
15115;DHT22;7658;51.456;7.622;2022-08-21T09:01:42;21.40;99.90
15115;DHT22;7658;51.456;7.622;2022-08-21T09:04:10;21.40;99.90
15115;DHT22;7658;51.456;7.622;2022-08-21T09:18:45;21.60;99.90
15115;DHT22;7658;51.456;7.622;2022-08-21T09:24:06;22.00;99.90
15115;DHT22;7658;51.456;7.622;2022-08-21T09:27:02;22.20;99.90
15115;DHT22;7658;51.456;7.622;2022-08-21T09:29:31;22.10;99.90
15115;DHT22;7658;51.456;7.622;2022-08-21T09:31:58;22.30;99.90
15115;DHT22;7658;51.456;7.622;2022-08-21T09:34:29;22.60;99.90
15115;DHT22;7658;51.456;7.622;2022-08-21T09:36:56;22.70;99.90
15115;DHT22;7658;51.456;7.622;2022-08-21T09:39:37;22.90;99.90
15115;DHT22;7658;51.456;7.622;2022-08-21T09:42:06;23.00;99.90
15115;DHT22;7658;51.456;7.622;2022-08-21T09:44:38;23.10;99.90
15115;DHT22;7658;51.456;7.622;2022-08-21T09:47:07;23.00;99.90
15115;DHT22;7658;51.456;7.622;2022-08-21T09:49:36;22.80;99.90
15115;DHT22;7658;51.456;7.622;2022-08-21T09:52:06;22.80;99.90
15115;DHT22;7658;51.456;7.622;2022-08-21T09:54:39;22.80;99.90
15115;DHT22;7658;51.456;7.622;2022-08-21T09:57:14;22.90;99.90
15115;DHT22;7658;51.456;7.622;2022-08-21T10:02:44;23.30;99.90
15115;DHT22;7658;51.456;7.622;2022-08-21T10:05:23;23.40;99.90
15115;DHT22;7658;51.456;7.622;2022-08-21T10:07:50;23.30;99.90
15115;DHT22;7658;51.456;7.622;2022-08-21T10:10:36;23.40;99.90
15115;DHT22;7658;51.456;7.622;2022-08-21T10:13:12;23.40;99.90
15115;DHT22;7658;51.456;7.622;2022-08-21T10:21:36;23.30;99.90
15115;DHT22;7658;51.456;7.622;2022-08-21T10:32:15;23.20;99.90
15115;DHT22;7658;51.456;7.622;2022-08-21T10:37:57;23.30;99.90
15115;DHT22;7658;51.456;7.622;2022-08-21T10:43:08;23.40;99.90
15115;DHT22;7658;51.456;7.622;2022-08-21T10:48:47;23.50;99.90
15115;DHT22;7658;51.456;7.622;2022-08-21T10:56:25;23.70;99.90
15115;DHT22;7658;51.456;7.622;2022-08-21T10:59:23;23.70;99.90
15115;DHT22;7658;51.456;7.622;2022-08-21T11:05:01;23.90;99.90
15115;DHT22;7658;51.456;7.622;2022-08-21T11:07:43;24.00;99.90
15115;DHT22;7658;51.456;7.622;2022-08-21T11:10:47;24.00;99.90
15115;DHT22;7658;51.456;7.622;2022-08-21T11:19:09;24.50;99.90
15115;DHT22;7658;51.456;7.622;2022-08-21T11:22:02;24.60;99.90
15115;DHT22;7658;51.456;7.622;2022-08-21T11:27:28;24.60;99.90
15115;DHT22;7658;51.456;7.622;2022-08-21T11:30:00;24.70;99.90
15115;DHT22;7658;51.456;7.622;2022-08-21T11:45:54;25.20;99.90
15115;DHT22;7658;51.456;7.622;2022-08-21T11:51:26;25.40;99.90
15115;DHT22;7658;51.456;7.622;2022-08-21T11:54:28;25.30;99.90
15115;DHT22;7658;51.456;7.622;2022-08-21T11:57:08;25.20;99.90
15115;DHT22;7658;51.456;7.622;2022-08-21T11:59:43;25.50;99.90
15115;DHT22;7658;51.456;7.622;2022-08-21T12:02:14;25.50;99.90
15115;DHT22;7658;51.456;7.622;2022-08-21T12:04:52;25.40;99.90
15115;DHT22;7658;51.456;7.622;2022-08-21T12:07:35;25.40;99.90
15115;DHT22;7658;51.456;7.622;2022-08-21T12:10:06;25.40;99.90
15115;DHT22;7658;51.456;7.622;2022-08-21T12:12:35;25.30;99.90
15115;DHT22;7658;51.456;7.622;2022-08-21T12:18:38;25.40;99.90
15115;DHT22;7658;51.456;7.622;2022-08-21T12:21:02;25.40;99.90
15115;DHT22;7658;51.456;7.622;2022-08-21T12:26:34;25.50;99.90
15115;DHT22;7658;51.456;7.622;2022-08-21T12:29:13;25.70;99.90
15115;DHT22;7658;51.456;7.622;2022-08-21T12:34:18;25.40;99.90
15115;DHT22;7658;51.456;7.622;2022-08-21T12:36:52;25.20;99.90
15115;DHT22;7658;51.456;7.622;2022-08-21T12:39:23;24.90;99.90
15115;DHT22;7658;51.456;7.622;2022-08-21T12:41:58;24.80;99.90
15115;DHT22;7658;51.456;7.622;2022-08-21T12:47:05;25.10;99.90
15115;DHT22;7658;51.456;7.622;2022-08-21T12:49:47;25.50;99.90
15115;DHT22;7658;51.456;7.622;2022-08-21T12:52:33;25.90;99.90
15115;DHT22;7658;51.456;7.622;2022-08-21T12:54:59;26.00;99.90
15115;DHT22;7658;51.456;7.622;2022-08-21T12:57:27;26.20;99.90
15115;DHT22;7658;51.456;7.622;2022-08-21T12:59:57;26.30;99.90
15115;DHT22;7658;51.456;7.622;2022-08-21T13:02:28;26.60;99.90
15115;DHT22;7658;51.456;7.622;2022-08-21T13:04:56;26.60;99.90
15115;DHT22;7658;51.456;7.622;2022-08-21T13:07:30;26.70;99.90
15115;DHT22;7658;51.456;7.622;2022-08-21T13:10:18;26.80;99.90
15115;DHT22;7658;51.456;7.622;2022-08-21T13:12:46;26.90;99.90
15115;DHT22;7658;51.456;7.622;2022-08-21T13:15:13;27.00;99.90
15115;DHT22;7658;51.456;7.622;2022-08-21T13:17:43;27.10;99.90
15115;DHT22;7658;51.456;7.622;2022-08-21T13:20:24;27.20;99.90
15115;DHT22;7658;51.456;7.622;2022-08-21T13:22:51;27.50;99.90
15115;DHT22;7658;51.456;7.622;2022-08-21T13:25:20;27.30;99.90
15115;DHT22;7658;51.456;7.622;2022-08-21T13:30:23;27.50;99.90
15115;DHT22;7658;51.456;7.622;2022-08-21T13:32:57;27.40;99.90
15115;DHT22;7658;51.456;7.622;2022-08-21T13:36:03;27.70;99.90
15115;DHT22;7658;51.456;7.622;2022-08-21T13:38:24;28.30;99.90
15115;DHT22;7658;51.456;7.622;2022-08-21T13:40:57;28.10;99.90
15115;DHT22;7658;51.456;7.622;2022-08-21T13:43:30;27.70;99.90
15115;DHT22;7658;51.456;7.622;2022-08-21T13:45:57;27.70;99.90
15115;DHT22;7658;51.456;7.622;2022-08-21T13:48:28;27.60;99.90
15115;DHT22;7658;51.456;7.622;2022-08-21T13:50:55;27.60;99.90
15115;DHT22;7658;51.456;7.622;2022-08-21T13:53:29;27.50;99.90
15115;DHT22;7658;51.456;7.622;2022-08-21T13:55:57;27.20;99.90
15115;DHT22;7658;51.456;7.622;2022-08-21T14:00:53;26.00;99.90
15115;DHT22;7658;51.456;7.622;2022-08-21T14:06:00;26.00;99.90
15115;DHT22;7658;51.456;7.622;2022-08-21T14:08:34;26.60;99.90
15115;DHT22;7658;51.456;7.622;2022-08-21T14:11:03;26.80;99.90
15115;DHT22;7658;51.456;7.622;2022-08-21T14:16:00;26.70;99.90
15115;DHT22;7658;51.456;7.622;2022-08-21T14:18:27;26.50;99.90
15115;DHT22;7658;51.456;7.622;2022-08-21T14:21:07;26.60;99.90
15115;DHT22;7658;51.456;7.622;2022-08-21T14:23:33;26.90;99.90
15115;DHT22;7658;51.456;7.622;2022-08-21T14:26:02;26.90;99.90
15115;DHT22;7658;51.456;7.622;2022-08-21T14:28:40;26.80;99.90
15115;DHT22;7658;51.456;7.622;2022-08-21T14:31:32;26.50;99.90
15115;DHT22;7658;51.456;7.622;2022-08-21T14:34:00;26.00;99.90
15115;DHT22;7658;51.456;7.622;2022-08-21T14:36:26;25.70;99.90
15115;DHT22;7658;51.456;7.622;2022-08-21T14:38:53;25.70;99.90
15115;DHT22;7658;51.456;7.622;2022-08-21T14:41:22;25.90;99.90
15115;DHT22;7658;51.456;7.622;2022-08-21T14:43:48;26.10;99.90
15115;DHT22;7658;51.456;7.622;2022-08-21T14:46:21;26.30;99.90
15115;DHT22;7658;51.456;7.622;2022-08-21T14:48:48;26.40;99.90
15115;DHT22;7658;51.456;7.622;2022-08-21T14:51:14;26.30;99.90
15115;DHT22;7658;51.456;7.622;2022-08-21T14:53:40;26.20;99.90
15115;DHT22;7658;51.456;7.622;2022-08-21T14:56:06;26.10;99.90
15115;DHT22;7658;51.456;7.622;2022-08-21T14:58:38;26.00;99.90
15115;DHT22;7658;51.456;7.622;2022-08-21T15:01:11;25.70;99.90
15115;DHT22;7658;51.456;7.622;2022-08-21T15:03:38;25.60;99.90
15115;DHT22;7658;51.456;7.622;2022-08-21T15:06:06;25.40;99.90
15115;DHT22;7658;51.456;7.622;2022-08-21T15:08:32;25.20;99.90
15115;DHT22;7658;51.456;7.622;2022-08-21T15:10:59;25.00;99.90
15115;DHT22;7658;51.456;7.622;2022-08-21T15:13:26;24.90;99.90
15115;DHT22;7658;51.456;7.622;2022-08-21T15:15:52;24.80;99.90
15115;DHT22;7658;51.456;7.622;2022-08-21T15:18:22;24.80;99.90
15115;DHT22;7658;51.456;7.622;2022-08-21T15:20:48;24.70;99.90
15115;DHT22;7658;51.456;7.622;2022-08-21T15:23:14;24.60;99.90
15115;DHT22;7658;51.456;7.622;2022-08-21T15:25:42;24.60;99.90
15115;DHT22;7658;51.456;7.622;2022-08-21T15:28:09;24.60;99.90
15115;DHT22;7658;51.456;7.622;2022-08-21T15:30:36;24.70;99.90
15115;DHT22;7658;51.456;7.622;2022-08-21T15:33:03;24.60;99.90
15115;DHT22;7658;51.456;7.622;2022-08-21T15:35:29;24.70;99.90
15115;DHT22;7658;51.456;7.622;2022-08-21T15:37:55;24.60;99.90
15115;DHT22;7658;51.456;7.622;2022-08-21T15:40:21;24.60;99.90
15115;DHT22;7658;51.456;7.622;2022-08-21T15:42:47;24.70;99.90
15115;DHT22;7658;51.456;7.622;2022-08-21T15:45:13;24.70;99.90
15115;DHT22;7658;51.456;7.622;2022-08-21T15:47:43;24.80;99.90
15115;DHT22;7658;51.456;7.622;2022-08-21T15:50:10;24.80;99.90
15115;DHT22;7658;51.456;7.622;2022-08-21T15:52:36;25.00;99.90
15115;DHT22;7658;51.456;7.622;2022-08-21T15:55:06;25.20;99.90
15115;DHT22;7658;51.456;7.622;2022-08-21T15:57:34;25.40;99.90
15115;DHT22;7658;51.456;7.622;2022-08-21T16:00:10;25.40;99.90
15115;DHT22;7658;51.456;7.622;2022-08-21T16:02:40;25.40;99.90
15115;DHT22;7658;51.456;7.622;2022-08-21T16:05:08;25.60;99.90
15115;DHT22;7658;51.456;7.622;2022-08-21T16:07:36;25.70;99.90
15115;DHT22;7658;51.456;7.622;2022-08-21T16:10:03;25.70;99.90
15115;DHT22;7658;51.456;7.622;2022-08-21T16:12:31;25.80;99.90
15115;DHT22;7658;51.456;7.622;2022-08-21T16:14:58;25.70;99.90
15115;DHT22;7658;51.456;7.622;2022-08-21T16:17:28;25.60;99.90
15115;DHT22;7658;51.456;7.622;2022-08-21T16:19:55;25.50;99.90
15115;DHT22;7658;51.456;7.622;2022-08-21T16:22:21;25.50;99.90
15115;DHT22;7658;51.456;7.622;2022-08-21T16:24:47;25.60;99.90
15115;DHT22;7658;51.456;7.622;2022-08-21T16:27:12;25.60;99.90
15115;DHT22;7658;51.456;7.622;2022-08-21T16:29:39;25.40;99.90
15115;DHT22;7658;51.456;7.622;2022-08-21T16:32:06;25.20;99.90
15115;DHT22;7658;51.456;7.622;2022-08-21T16:34:32;25.10;99.90
15115;DHT22;7658;51.456;7.622;2022-08-21T16:36:58;25.00;99.90
15115;DHT22;7658;51.456;7.622;2022-08-21T16:39:24;24.90;99.90
15115;DHT22;7658;51.456;7.622;2022-08-21T16:41:50;24.80;99.90
15115;DHT22;7658;51.456;7.622;2022-08-21T16:44:17;24.70;99.90
15115;DHT22;7658;51.456;7.622;2022-08-21T16:46:44;24.70;99.90
15115;DHT22;7658;51.456;7.622;2022-08-21T16:49:10;24.80;99.90
15115;DHT22;7658;51.456;7.622;2022-08-21T16:51:38;24.80;99.90
15115;DHT22;7658;51.456;7.622;2022-08-21T16:54:04;24.90;99.90
15115;DHT22;7658;51.456;7.622;2022-08-21T16:56:30;24.90;99.90
15115;DHT22;7658;51.456;7.622;2022-08-21T16:58:57;24.90;99.90
15115;DHT22;7658;51.456;7.622;2022-08-21T17:01:31;24.90;99.90
15115;DHT22;7658;51.456;7.622;2022-08-21T17:03:58;24.80;99.90
15115;DHT22;7658;51.456;7.622;2022-08-21T17:06:24;24.80;99.90
15115;DHT22;7658;51.456;7.622;2022-08-21T17:08:51;24.70;99.90
15115;DHT22;7658;51.456;7.622;2022-08-21T17:11:36;24.70;99.90
15115;DHT22;7658;51.456;7.622;2022-08-21T17:14:09;24.70;99.90
15115;DHT22;7658;51.456;7.622;2022-08-21T17:16:36;24.70;99.90
15115;DHT22;7658;51.456;7.622;2022-08-21T17:19:02;24.60;99.90
15115;DHT22;7658;51.456;7.622;2022-08-21T17:21:28;24.60;99.90
15115;DHT22;7658;51.456;7.622;2022-08-21T17:23:54;24.50;99.90
15115;DHT22;7658;51.456;7.622;2022-08-21T17:26:20;24.40;99.90
15115;DHT22;7658;51.456;7.622;2022-08-21T17:28:46;24.30;99.90
15115;DHT22;7658;51.456;7.622;2022-08-21T17:31:12;24.30;99.90
15115;DHT22;7658;51.456;7.622;2022-08-21T17:33:44;24.20;99.90
15115;DHT22;7658;51.456;7.622;2022-08-21T17:36:27;24.10;99.90
15115;DHT22;7658;51.456;7.622;2022-08-21T17:38:53;24.00;99.90
15115;DHT22;7658;51.456;7.622;2022-08-21T17:41:19;23.90;99.90